sensor_id;sensor_type;location;lat;lon;timestamp;pressure;altitude;pressure_sealevel;temperature;humidity
20909;BME280;10614;53.198;6.570;2023-12-14T00:09:23;101103.56;;;4.25;100.00
20909;BME280;10614;53.198;6.570;2023-12-14T00:11:25;101094.06;;;4.22;100.00
20909;BME280;10614;53.198;6.570;2023-12-14T00:13:27;101106.22;;;4.20;100.00
20909;BME280;10614;53.198;6.570;2023-12-14T00:15:29;101125.28;;;4.29;100.00
20909;BME280;10614;53.198;6.570;2023-12-14T00:17:31;101125.31;;;4.24;100.00
20909;BME280;10614;53.198;6.570;2023-12-14T00:19:32;101112.34;;;4.16;100.00
20909;BME280;10614;53.198;6.570;2023-12-14T00:21:33;101133.09;;;4.29;100.00
20909;BME280;10614;53.198;6.570;2023-12-14T00:23:35;101115.75;;;4.25;100.00
20909;BME280;10614;53.198;6.570;2023-12-14T00:25:37;101121.00;;;4.21;100.00
20909;BME280;10614;53.198;6.570;2023-12-14T00:27:39;101148.69;;;4.32;100.00
20909;BME280;10614;53.198;6.570;2023-12-14T00:29:41;101147.84;;;4.28;100.00
20909;BME280;10614;53.198;6.570;2023-12-14T00:31:42;101129.69;;;4.19;100.00
20909;BME280;10614;53.198;6.570;2023-12-14T00:33:43;101159.06;;;4.35;100.00
20909;BME280;10614;53.198;6.570;2023-12-14T00:35:45;101140.97;;;4.21;100.00
20909;BME280;10614;53.198;6.570;2023-12-14T00:37:47;101160.81;;;4.34;100.00
20909;BME280;10614;53.198;6.570;2023-12-14T00:39:48;101147.91;;;4.20;100.00
20909;BME280;10614;53.198;6.570;2023-12-14T00:41:51;101147.91;;;4.20;100.00
20909;BME280;10614;53.198;6.570;2023-12-14T00:43:53;101168.72;;;4.27;100.00
20909;BME280;10614;53.198;6.570;2023-12-14T00:46:19;101172.19;;;4.29;100.00
20909;BME280;10614;53.198;6.570;2023-12-14T00:48:21;101171.34;;;4.25;100.00
20909;BME280;10614;53.198;6.570;2023-12-14T00:50:23;101184.31;;;4.30;100.00
20909;BME280;10614;53.198;6.570;2023-12-14T00:52:24;101165.34;;;4.15;100.00
20909;BME280;10614;53.198;6.570;2023-12-14T00:54:26;101160.13;;;4.15;100.00
20909;BME280;10614;53.198;6.570;2023-12-14T00:56:28;101185.19;;;4.30;100.00
20909;BME280;10614;53.198;6.570;2023-12-14T00:58:31;101184.34;;;4.25;100.00
20909;BME280;10614;53.198;6.570;2023-12-14T01:00:33;101188.72;;;4.26;100.00
20909;BME280;10614;53.198;6.570;2023-12-14T01:02:34;101197.31;;;4.33;100.00
20909;BME280;10614;53.198;6.570;2023-12-14T01:04:35;101195.59;;;4.33;100.00
20909;BME280;10614;53.198;6.570;2023-12-14T01:06:37;101206.03;;;4.33;100.00
20909;BME280;10614;53.198;6.570;2023-12-14T01:08:39;101206.91;;;4.29;100.00
20909;BME280;10614;53.198;6.570;2023-12-14T01:10:40;101181.00;;;4.12;100.00
20909;BME280;10614;53.198;6.570;2023-12-14T01:12:41;101193.09;;;4.16;100.00
20909;BME280;10614;53.198;6.570;2023-12-14T01:14:44;101182.72;;;4.13;100.00
20909;BME280;10614;53.198;6.570;2023-12-14T01:16:46;101209.59;;;4.21;100.00
20909;BME280;10614;53.198;6.570;2023-12-14T01:18:48;101206.09;;;4.21;100.00
20909;BME280;10614;53.198;6.570;2023-12-14T01:20:50;101206.16;;;4.15;100.00
20909;BME280;10614;53.198;6.570;2023-12-14T01:22:52;101234.69;;;4.33;100.00
20909;BME280;10614;53.198;6.570;2023-12-14T01:24:54;101213.09;;;4.16;100.00
20909;BME280;10614;53.198;6.570;2023-12-14T01:26:57;101219.16;;;4.18;100.00
20909;BME280;10614;53.198;6.570;2023-12-14T01:28:59;101241.66;;;4.30;100.00
20909;BME280;10614;53.198;6.570;2023-12-14T01:31:02;101239.13;;;4.20;100.00
20909;BME280;10614;53.198;6.570;2023-12-14T01:33:04;101228.75;;;4.13;100.00
20909;BME280;10614;53.198;6.570;2023-12-14T01:35:07;101252.13;;;4.27;100.00
20909;BME280;10614;53.198;6.570;2023-12-14T01:37:08;101245.19;;;4.22;100.00
20909;BME280;10614;53.198;6.570;2023-12-14T01:39:10;101230.53;;;4.08;100.00
20909;BME280;10614;53.198;6.570;2023-12-14T01:41:12;101256.47;;;4.26;100.00
20909;BME280;10614;53.198;6.570;2023-12-14T01:43:13;101239.22;;;4.10;100.00
20909;BME280;10614;53.198;6.570;2023-12-14T01:45:15;101240.97;;;4.06;100.00
20909;BME280;10614;53.198;6.570;2023-12-14T01:47:18;101278.19;;;4.20;100.00
20909;BME280;10614;53.198;6.570;2023-12-14T01:49:20;101274.72;;;4.23;100.00
20909;BME280;10614;53.198;6.570;2023-12-14T01:51:22;101270.41;;;4.16;100.00
20909;BME280;10614;53.198;6.570;2023-12-14T01:53:24;101263.47;;;4.12;100.00
20909;BME280;10614;53.198;6.570;2023-12-14T02:15:13;101281.75;;;4.10;100.00
20909;BME280;10614;53.198;6.570;2023-12-14T02:17:15;101309.47;;;4.20;100.00
20909;BME280;10614;53.198;6.570;2023-12-14T02:23:59;101312.94;;;4.21;100.00
20909;BME280;10614;53.198;6.570;2023-12-14T02:47:48;101297.47;;;3.95;100.00
20909;BME280;10614;53.198;6.570;2023-12-14T03:45:43;101373.84;;;3.95;100.00
20909;BME280;10614;53.198;6.570;2023-12-14T03:47:45;101403.28;;;4.16;100.00
20909;BME280;10614;53.198;6.570;2023-12-14T03:49:47;101407.66;;;4.17;100.00
20909;BME280;10614;53.198;6.570;2023-12-14T03:51:49;101375.56;;;4.02;100.00
20909;BME280;10614;53.198;6.570;2023-12-14T03:53:51;101387.72;;;4.02;100.00
20909;BME280;10614;53.198;6.570;2023-12-14T03:55:54;101368.66;;;3.94;100.00
20909;BME280;10614;53.198;6.570;2023-12-14T03:57:56;101395.53;;;4.02;100.00
20909;BME280;10614;53.198;6.570;2023-12-14T03:59:57;101392.97;;;3.94;100.00
20909;BME280;10614;53.198;6.570;2023-12-14T04:02:00;101406.84;;;3.98;100.00
20909;BME280;10614;53.198;6.570;2023-12-14T04:04:01;101395.56;;;3.99;100.00
20909;BME280;10614;53.198;6.570;2023-12-14T04:06:03;101402.50;;;3.98;100.00
20909;BME280;10614;53.198;6.570;2023-12-14T04:08:05;101432.84;;;4.13;100.00
20909;BME280;10614;53.198;6.570;2023-12-14T04:10:07;101426.75;;;4.14;100.00
20909;BME280;10614;53.198;6.570;2023-12-14T04:12:09;101432.84;;;4.15;100.00
20909;BME280;10614;53.198;6.570;2023-12-14T04:14:10;101406.84;;;4.01;100.00
20909;BME280;10614;53.198;6.570;2023-12-14T04:16:12;101436.34;;;4.12;100.00
20909;BME280;10614;53.198;6.570;2023-12-14T04:18:15;101394.72;;;3.94;100.00
20909;BME280;10614;53.198;6.570;2023-12-14T04:20:16;101408.59;;;3.96;100.00
20909;BME280;10614;53.198;6.570;2023-12-14T04:22:18;101444.16;;;4.12;100.00
20909;BME280;10614;53.198;6.570;2023-12-14T04:24:19;101414.69;;;3.93;100.00
20909;BME280;10614;53.198;6.570;2023-12-14T04:26:22;101438.94;;;4.08;100.00
20909;BME280;10614;53.198;6.570;2023-12-14T04:28:24;101441.53;;;4.12;100.00
20909;BME280;10614;53.198;6.570;2023-12-14T04:30:25;101413.78;;;3.99;100.00
20909;BME280;10614;53.198;6.570;2023-12-14T04:32:27;101441.56;;;4.06;100.00
20909;BME280;10614;53.198;6.570;2023-12-14T04:34:29;101448.47;;;4.13;100.00
20909;BME280;10614;53.198;6.570;2023-12-14T04:36:31;101426.84;;;3.96;100.00
20909;BME280;10614;53.198;6.570;2023-12-14T04:38:32;101454.56;;;4.12;100.00
20909;BME280;10614;53.198;6.570;2023-12-14T04:40:34;101429.44;;;3.96;100.00
20909;BME280;10614;53.198;6.570;2023-12-14T04:42:36;101451.09;;;4.04;100.00
20909;BME280;10614;53.198;6.570;2023-12-14T04:44:37;101450.25;;;4.05;100.00
20909;BME280;10614;53.198;6.570;2023-12-14T04:46:39;101469.34;;;4.10;100.00
20909;BME280;10614;53.198;6.570;2023-12-14T04:48:41;101443.31;;;3.95;100.00
20909;BME280;10614;53.198;6.570;2023-12-14T04:50:45;101456.34;;;3.99;100.00
20909;BME280;10614;53.198;6.570;2023-12-14T04:52:47;101458.06;;;3.99;100.00
20909;BME280;10614;53.198;6.570;2023-12-14T04:54:48;101488.41;;;4.14;100.00
20909;BME280;10614;53.198;6.570;2023-12-14T04:56:50;101478.88;;;4.07;100.00
20909;BME280;10614;53.198;6.570;2023-12-14T04:58:52;101458.09;;;3.91;100.00
20909;BME280;10614;53.198;6.570;2023-12-14T05:00:56;101491.88;;;4.14;100.00
20909;BME280;10614;53.198;6.570;2023-12-14T05:02:58;101467.63;;;3.91;100.00
20909;BME280;10614;53.198;6.570;2023-12-14T05:04:59;101499.75;;;4.10;100.00
20909;BME280;10614;53.198;6.570;2023-12-14T05:07:02;101492.81;;;4.01;100.00
20909;BME280;10614;53.198;6.570;2023-12-14T05:09:03;101508.41;;;4.09;100.00
20909;BME280;10614;53.198;6.570;2023-12-14T05:11:06;101485.00;;;3.95;100.00
20909;BME280;10614;53.198;6.570;2023-12-14T05:13:07;101513.63;;;3.99;100.00
20909;BME280;10614;53.198;6.570;2023-12-14T05:15:10;101479.84;;;3.79;100.00
20909;BME280;10614;53.198;6.570;2023-12-14T05:17:11;101491.97;;;3.80;100.00
20909;BME280;10614;53.198;6.570;2023-12-14T05:19:13;101526.66;;;4.06;100.00
20909;BME280;10614;53.198;6.570;2023-12-14T05:21:17;101528.41;;;4.05;100.00
20909;BME280;10614;53.198;6.570;2023-12-14T05:23:21;101532.72;;;4.05;100.00
20909;BME280;10614;53.198;6.570;2023-12-14T06:38:30;101654.31;;;4.07;100.00
20909;BME280;10614;53.198;6.570;2023-12-14T06:40:31;101645.63;;;4.04;100.00
20909;BME280;10614;53.198;6.570;2023-12-14T06:42:33;101646.50;;;4.04;100.00
20909;BME280;10614;53.198;6.570;2023-12-14T06:44:35;101625.69;;;3.93;100.00
20909;BME280;10614;53.198;6.570;2023-12-14T06:46:37;101639.53;;;4.00;100.00
20909;BME280;10614;53.198;6.570;2023-12-14T06:48:38;101631.72;;;3.97;100.00
20909;BME280;10614;53.198;6.570;2023-12-14T06:50:40;101653.44;;;4.11;100.00
20909;BME280;10614;53.198;6.570;2023-12-14T06:52:42;101620.47;;;3.92;100.00
20909;BME280;10614;53.198;6.570;2023-12-14T06:54:44;101666.47;;;4.13;100.00
20909;BME280;10614;53.198;6.570;2023-12-14T06:56:46;101658.66;;;4.11;100.00
20909;BME280;10614;53.198;6.570;2023-12-14T06:58:47;101646.50;;;3.99;100.00
20909;BME280;10614;53.198;6.570;2023-12-14T07:00:49;101667.34;;;4.13;100.00
20909;BME280;10614;53.198;6.570;2023-12-14T07:02:51;101669.06;;;4.11;100.00
20909;BME280;10614;53.198;6.570;2023-12-14T07:04:53;101666.50;;;4.10;100.00
20909;BME280;10614;53.198;6.570;2023-12-14T07:06:55;101677.78;;;4.10;100.00
20909;BME280;10614;53.198;6.570;2023-12-14T07:08:57;101682.13;;;4.10;100.00
20909;BME280;10614;53.198;6.570;2023-12-14T07:11:00;101656.03;;;3.93;100.00
20909;BME280;10614;53.198;6.570;2023-12-14T07:13:02;101652.59;;;3.94;100.00
20909;BME280;10614;53.198;6.570;2023-12-14T07:15:04;101661.28;;;3.96;100.00
20909;BME280;10614;53.198;6.570;2023-12-14T07:17:06;101647.34;;;3.86;100.00
20909;BME280;10614;53.198;6.570;2023-12-14T07:19:08;101667.31;;;3.98;100.00
20909;BME280;10614;53.198;6.570;2023-12-14T07:21:11;101684.72;;;4.07;100.00
20909;BME280;10614;53.198;6.570;2023-12-14T07:23:13;101659.50;;;3.83;100.00
20909;BME280;10614;53.198;6.570;2023-12-14T07:25:13;101700.34;;;4.04;100.00
20909;BME280;10614;53.198;6.570;2023-12-14T07:27:17;101693.38;;;3.98;100.00
20909;BME280;10614;53.198;6.570;2023-12-14T07:29:18;101706.41;;;4.04;100.00
20909;BME280;10614;53.198;6.570;2023-12-14T07:31:20;101710.78;;;4.05;100.00
20909;BME280;10614;53.198;6.570;2023-12-14T07:33:22;101715.09;;;4.06;100.00
20909;BME280;10614;53.198;6.570;2023-12-14T07:35:24;101693.41;;;3.93;100.00
20909;BME280;10614;53.198;6.570;2023-12-14T07:37:25;101716.84;;;4.06;100.00
20909;BME280;10614;53.198;6.570;2023-12-14T07:39:27;101723.78;;;4.04;100.00
20909;BME280;10614;53.198;6.570;2023-12-14T07:41:31;101716.84;;;4.06;100.00
20909;BME280;10614;53.198;6.570;2023-12-14T08:38:02;101779.34;;;3.99;100.00
20909;BME280;10614;53.198;6.570;2023-12-14T08:42:15;101808.09;;;4.24;100.00
20909;BME280;10614;53.198;6.570;2023-12-14T08:48:38;101823.72;;;4.32;100.00
20909;BME280;10614;53.198;6.570;2023-12-14T08:55:06;101822.84;;;4.31;100.00
20909;BME280;10614;53.198;6.570;2023-12-14T08:57:12;101809.81;;;4.27;100.00
20909;BME280;10614;53.198;6.570;2023-12-14T08:59:22;101822.00;;;4.34;100.00
20909;BME280;10614;53.198;6.570;2023-12-14T09:01:25;101787.19;;;4.16;100.00
20909;BME280;10614;53.198;6.570;2023-12-14T09:03:29;101821.13;;;4.33;100.00
20909;BME280;10614;53.198;6.570;2023-12-14T09:05:30;101806.34;;;4.25;100.00
20909;BME280;10614;53.198;6.570;2023-12-14T09:07:32;101829.81;;;4.38;100.00
20909;BME280;10614;53.198;6.570;2023-12-14T09:09:37;101819.38;;;4.34;100.00
20909;BME280;10614;53.198;6.570;2023-12-14T09:11:40;101823.72;;;4.39;100.00
20909;BME280;10614;53.198;6.570;2023-12-14T09:13:46;101852.44;;;4.55;100.00
20909;BME280;10614;53.198;6.570;2023-12-14T09:15:48;101826.34;;;4.44;100.00
20909;BME280;10614;53.198;6.570;2023-12-14T09:17:53;101848.94;;;4.56;100.00
20909;BME280;10614;53.198;6.570;2023-12-14T09:19:58;101861.13;;;4.58;100.00
20909;BME280;10614;53.198;6.570;2023-12-14T09:22:02;101861.13;;;4.61;100.00
20909;BME280;10614;53.198;6.570;2023-12-14T09:24:05;101865.47;;;4.62;100.00
20909;BME280;10614;53.198;6.570;2023-12-14T09:26:07;101860.25;;;4.65;100.00
20909;BME280;10614;53.198;6.570;2023-12-14T09:28:11;101867.22;;;4.65;100.00
20909;BME280;10614;53.198;6.570;2023-12-14T09:30:14;101867.22;;;4.65;100.00
20909;BME280;10614;53.198;6.570;2023-12-14T09:32:18;101856.78;;;4.60;100.00
20909;BME280;10614;53.198;6.570;2023-12-14T09:34:20;101851.56;;;4.56;100.00
20909;BME280;10614;53.198;6.570;2023-12-14T09:36:20;101875.91;;;4.72;100.00
20909;BME280;10614;53.198;6.570;2023-12-14T09:38:23;101866.34;;;4.69;100.00
20909;BME280;10614;53.198;6.570;2023-12-14T09:40:25;101881.13;;;4.72;100.00
20909;BME280;10614;53.198;6.570;2023-12-14T09:42:25;101847.19;;;4.56;100.00
20909;BME280;10614;53.198;6.570;2023-12-14T09:44:29;101857.63;;;4.61;100.00
20909;BME280;10614;53.198;6.570;2023-12-14T09:46:32;101851.56;;;4.57;100.00
20909;BME280;10614;53.198;6.570;2023-12-14T09:48:35;101859.38;;;4.60;100.00
20909;BME280;10614;53.198;6.570;2023-12-14T09:50:36;101874.16;;;4.77;100.00
20909;BME280;10614;53.198;6.570;2023-12-14T09:52:40;101855.03;;;4.61;100.00
20909;BME280;10614;53.198;6.570;2023-12-14T09:54:45;101856.78;;;4.67;100.00
20909;BME280;10614;53.198;6.570;2023-12-14T09:56:48;101875.03;;;4.79;100.00
20909;BME280;10614;53.198;6.570;2023-12-14T09:58:50;101850.69;;;4.68;100.00
20909;BME280;10614;53.198;6.570;2023-12-14T10:00:53;101855.91;;;4.69;100.00
20909;BME280;10614;53.198;6.570;2023-12-14T10:02:54;101882.88;;;4.83;100.00
20909;BME280;10614;53.198;6.570;2023-12-14T10:20:09;101884.59;;;4.58;100.00
20909;BME280;10614;53.198;6.570;2023-12-14T10:22:15;101909.81;;;4.76;100.00
20909;BME280;10614;53.198;6.570;2023-12-14T10:24:19;101895.06;;;4.71;100.00
20909;BME280;10614;53.198;6.570;2023-12-14T10:26:22;101919.38;;;4.82;100.00
20909;BME280;10614;53.198;6.570;2023-12-14T10:28:25;101907.19;;;4.70;100.00
20909;BME280;10614;53.198;6.570;2023-12-14T10:30:29;101913.31;;;4.74;100.00
20909;BME280;10614;53.198;6.570;2023-12-14T10:32:32;101903.72;;;4.70;100.00
20909;BME280;10614;53.198;6.570;2023-12-14T10:34:35;101928.09;;;4.85;100.00
20909;BME280;10614;53.198;6.570;2023-12-14T10:36:38;101898.53;;;4.74;100.00
20909;BME280;10614;53.198;6.570;2023-12-14T10:38:43;101872.41;;;4.63;100.00
20909;BME280;10614;53.198;6.570;2023-12-14T10:40:45;101888.97;;;4.87;100.00
20909;BME280;10614;53.198;6.570;2023-12-14T10:42:47;101868.97;;;4.86;100.00
20909;BME280;10614;53.198;6.570;2023-12-14T10:44:54;101891.56;;;4.98;100.00
20909;BME280;10614;53.198;6.570;2023-12-14T10:46:58;101919.41;;;5.17;100.00
20909;BME280;10614;53.198;6.570;2023-12-14T10:49:01;101895.03;;;5.07;100.00
20909;BME280;10614;53.198;6.570;2023-12-14T10:51:03;101926.34;;;5.34;100.00
20909;BME280;10614;53.198;6.570;2023-12-14T10:53:07;101922.88;;;5.38;100.00
20909;BME280;10614;53.198;6.570;2023-12-14T10:55:15;101923.75;;;5.40;100.00
20909;BME280;10614;53.198;6.570;2023-12-14T10:57:19;101930.69;;;5.48;100.00
20909;BME280;10614;53.198;6.570;2023-12-14T10:59:21;101908.09;;;5.41;100.00
20909;BME280;10614;53.198;6.570;2023-12-14T11:01:25;101903.72;;;5.37;100.00
20909;BME280;10614;53.198;6.570;2023-12-14T11:03:32;101930.66;;;5.61;100.00
20909;BME280;10614;53.198;6.570;2023-12-14T11:05:34;101914.16;;;5.49;100.00
20909;BME280;10614;53.198;6.570;2023-12-14T11:07:47;101935.88;;;5.68;100.00
20909;BME280;10614;53.198;6.570;2023-12-14T11:09:49;101934.13;;;5.70;100.00
20909;BME280;10614;53.198;6.570;2023-12-14T11:11:56;101941.09;;;5.70;100.00
20909;BME280;10614;53.198;6.570;2023-12-14T11:14:00;101942.00;;;5.69;100.00
20909;BME280;10614;53.198;6.570;2023-12-14T11:16:05;101936.75;;;5.69;100.00
20909;BME280;10614;53.198;6.570;2023-12-14T11:18:24;101920.22;;;5.55;100.00
20909;BME280;10614;53.198;6.570;2023-12-14T11:20:29;101930.66;;;5.65;100.00
20909;BME280;10614;53.198;6.570;2023-12-14T11:22:31;101941.97;;;5.72;100.00
20909;BME280;10614;53.198;6.570;2023-12-14T11:24:37;101947.19;;;5.75;100.00
20909;BME280;10614;53.198;6.570;2023-12-14T11:26:39;101949.78;;;5.80;100.00
20909;BME280;10614;53.198;6.570;2023-12-14T11:28:41;101936.75;;;5.72;100.00
20909;BME280;10614;53.198;6.570;2023-12-14T11:30:44;101942.81;;;5.71;100.00
20909;BME280;10614;53.198;6.570;2023-12-14T11:32:45;101948.06;;;5.74;100.00
20909;BME280;10614;53.198;6.570;2023-12-14T11:34:47;101960.22;;;5.86;100.00
20909;BME280;10614;53.198;6.570;2023-12-14T11:36:49;101953.25;;;5.86;100.00
20909;BME280;10614;53.198;6.570;2023-12-14T11:38:50;101935.00;;;5.77;100.00
20909;BME280;10614;53.198;6.570;2023-12-14T11:40:54;101960.22;;;5.86;100.00
20909;BME280;10614;53.198;6.570;2023-12-14T11:43:00;101972.41;;;5.88;100.00
20909;BME280;10614;53.198;6.570;2023-12-14T11:45:07;101974.16;;;5.88;100.00
20909;BME280;10614;53.198;6.570;2023-12-14T11:47:09;101973.28;;;5.89;100.00
20909;BME280;10614;53.198;6.570;2023-12-14T11:49:11;101969.81;;;5.85;100.00
20909;BME280;10614;53.198;6.570;2023-12-14T11:51:13;101971.56;;;5.83;100.00
20909;BME280;10614;53.198;6.570;2023-12-14T11:53:15;101980.25;;;5.88;100.00
20909;BME280;10614;53.198;6.570;2023-12-14T11:55:41;101971.56;;;5.82;100.00
20909;BME280;10614;53.198;6.570;2023-12-14T12:05:55;101951.56;;;5.59;100.00
20909;BME280;10614;53.198;6.570;2023-12-14T12:07:58;101973.31;;;5.66;100.00
20909;BME280;10614;53.198;6.570;2023-12-14T12:10:08;101953.28;;;5.62;100.00
20909;BME280;10614;53.198;6.570;2023-12-14T12:12:28;101983.75;;;5.77;100.00
20909;BME280;10614;53.198;6.570;2023-12-14T12:14:33;101993.34;;;5.81;100.00
20909;BME280;10614;53.198;6.570;2023-12-14T12:16:37;101973.34;;;5.69;100.00
20909;BME280;10614;53.198;6.570;2023-12-14T12:18:53;101959.38;;;5.64;100.00
20909;BME280;10614;53.198;6.570;2023-12-14T12:31:55;101981.16;;;5.67;100.00
20909;BME280;10614;53.198;6.570;2023-12-14T12:33:59;101994.22;;;5.66;100.00
20909;BME280;10614;53.198;6.570;2023-12-14T12:36:01;101996.84;;;5.61;100.00
20909;BME280;10614;53.198;6.570;2023-12-14T12:38:03;102020.34;;;5.72;100.00
20909;BME280;10614;53.198;6.570;2023-12-14T12:40:06;101976.81;;;5.40;100.00
20909;BME280;10614;53.198;6.570;2023-12-14T12:42:07;102004.69;;;5.41;100.00
20909;BME280;10614;53.198;6.570;2023-12-14T12:44:09;102037.78;;;5.48;100.00
20909;BME280;10614;53.198;6.570;2023-12-14T12:46:23;102005.53;;;5.23;100.00
20909;BME280;10614;53.198;6.570;2023-12-14T12:48:27;102034.28;;;5.37;100.00
20909;BME280;10614;53.198;6.570;2023-12-14T12:50:27;102028.16;;;5.29;100.00
20909;BME280;10614;53.198;6.570;2023-12-14T12:52:29;102030.78;;;5.31;100.00
20909;BME280;10614;53.198;6.570;2023-12-14T12:54:31;102032.53;;;5.25;100.00
20909;BME280;10614;53.198;6.570;2023-12-14T12:56:33;102009.88;;;5.09;100.00
20909;BME280;10614;53.198;6.570;2023-12-14T12:58:35;102002.91;;;5.13;100.00
20909;BME280;10614;53.198;6.570;2023-12-14T13:00:40;102027.31;;;5.39;100.00
20909;BME280;10614;53.198;6.570;2023-12-14T13:02:43;102028.16;;;5.38;100.00
20909;BME280;10614;53.198;6.570;2023-12-14T13:04:46;101996.84;;;5.18;100.00
20909;BME280;10614;53.198;6.570;2023-12-14T13:06:50;102018.63;;;5.25;100.00
20909;BME280;10614;53.198;6.570;2023-12-14T13:08:51;102002.06;;;5.14;100.00
20909;BME280;10614;53.198;6.570;2023-12-14T13:10:52;102027.28;;;5.24;100.00
20909;BME280;10614;53.198;6.570;2023-12-14T13:12:54;101990.72;;;5.01;100.00
20909;BME280;10614;53.198;6.570;2023-12-14T13:15:00;102020.31;;;5.17;100.00
20909;BME280;10614;53.198;6.570;2023-12-14T13:17:02;102034.25;;;5.22;100.00
20909;BME280;10614;53.198;6.570;2023-12-14T13:19:04;102009.88;;;5.01;100.00
20909;BME280;10614;53.198;6.570;2023-12-14T13:21:09;102044.72;;;5.20;100.00
20909;BME280;10614;53.198;6.570;2023-12-14T13:23:11;102006.38;;;5.01;100.00
20909;BME280;10614;53.198;6.570;2023-12-14T13:25:13;102033.38;;;5.09;100.00
20909;BME280;10614;53.198;6.570;2023-12-14T13:27:15;102047.31;;;5.22;100.00
20909;BME280;10614;53.198;6.570;2023-12-14T13:29:17;102022.06;;;5.04;100.00
20909;BME280;10614;53.198;6.570;2023-12-14T13:31:21;102042.94;;;5.12;100.00
20909;BME280;10614;53.198;6.570;2023-12-14T13:33:23;102047.28;;;5.14;100.00
20909;BME280;10614;53.198;6.570;2023-12-14T13:35:26;102050.81;;;5.18;100.00
20909;BME280;10614;53.198;6.570;2023-12-14T13:37:31;102022.03;;;5.01;100.00
20909;BME280;10614;53.198;6.570;2023-12-14T13:39:33;102050.78;;;5.13;100.00
20909;BME280;10614;53.198;6.570;2023-12-14T13:41:38;102050.75;;;5.10;100.00
20909;BME280;10614;53.198;6.570;2023-12-14T13:43:40;102033.34;;;4.91;100.00
20909;BME280;10614;53.198;6.570;2023-12-14T13:45:41;102025.47;;;4.84;100.00
20909;BME280;10614;53.198;6.570;2023-12-14T13:47:43;102039.44;;;4.96;100.00
20909;BME280;10614;53.198;6.570;2023-12-14T13:49:45;102011.56;;;4.78;100.00
20909;BME280;10614;53.198;6.570;2023-12-14T13:51:48;102023.78;;;4.93;100.00
20909;BME280;10614;53.198;6.570;2023-12-14T13:53:52;102025.50;;;4.91;100.00
20909;BME280;10614;53.198;6.570;2023-12-14T13:55:53;102042.06;;;4.94;100.00
20909;BME280;10614;53.198;6.570;2023-12-14T13:57:55;102070.81;;;5.16;100.00
20909;BME280;10614;53.198;6.570;2023-12-14T14:15:14;102091.63;;;4.97;100.00
20909;BME280;10614;53.198;6.570;2023-12-14T14:17:17;102093.38;;;4.97;100.00
20909;BME280;10614;53.198;6.570;2023-12-14T14:19:19;102082.91;;;4.95;100.00
20909;BME280;10614;53.198;6.570;2023-12-14T14:21:21;102092.50;;;5.01;100.00
20909;BME280;10614;53.198;6.570;2023-12-14T14:23:25;102075.94;;;4.88;100.00
20909;BME280;10614;53.198;6.570;2023-12-14T14:25:27;102098.59;;;5.01;100.00
20909;BME280;10614;53.198;6.570;2023-12-14T14:27:29;102089.88;;;4.93;100.00
20909;BME280;10614;53.198;6.570;2023-12-14T14:29:32;102102.94;;;4.99;100.00
20909;BME280;10614;53.198;6.570;2023-12-14T14:31:38;102115.13;;;5.02;100.00
20909;BME280;10614;53.198;6.570;2023-12-14T14:33:43;102109.91;;;4.94;100.00
20909;BME280;10614;53.198;6.570;2023-12-14T14:35:47;102101.16;;;4.88;100.00
20909;BME280;10614;53.198;6.570;2023-12-14T14:37:52;102127.28;;;4.98;100.00
20909;BME280;10614;53.198;6.570;2023-12-14T14:39:54;102128.19;;;4.99;100.00
20909;BME280;10614;53.198;6.570;2023-12-14T14:41:55;102110.75;;;4.87;100.00
20909;BME280;10614;53.198;6.570;2023-12-14T14:43:57;102111.56;;;4.81;100.00
20909;BME280;10614;53.198;6.570;2023-12-14T14:45:58;102133.38;;;4.97;100.00
20909;BME280;10614;53.198;6.570;2023-12-14T14:48:06;102125.50;;;4.86;100.00
20909;BME280;10614;53.198;6.570;2023-12-14T14:50:10;102148.16;;;4.92;100.00
20909;BME280;10614;53.198;6.570;2023-12-14T14:52:11;102124.63;;;4.83;100.00
20909;BME280;10614;53.198;6.570;2023-12-14T14:54:13;102135.06;;;4.83;100.00
20909;BME280;10614;53.198;6.570;2023-12-14T14:56:15;102153.34;;;4.89;100.00
20909;BME280;10614;53.198;6.570;2023-12-14T14:58:17;102155.94;;;4.89;100.00
20909;BME280;10614;53.198;6.570;2023-12-14T15:00:19;102141.97;;;4.75;100.00
20909;BME280;10614;53.198;6.570;2023-12-14T15:02:22;102142.84;;;4.77;100.00
20909;BME280;10614;53.198;6.570;2023-12-14T15:04:25;102127.22;;;4.75;100.00
20909;BME280;10614;53.198;6.570;2023-12-14T15:06:29;102128.06;;;4.71;100.00
20909;BME280;10614;53.198;6.570;2023-12-14T15:08:31;102140.22;;;4.72;100.00
20909;BME280;10614;53.198;6.570;2023-12-14T15:10:33;102146.28;;;4.68;100.00
20909;BME280;10614;53.198;6.570;2023-12-14T15:12:35;102168.97;;;4.86;100.00
20909;BME280;10614;53.198;6.570;2023-12-14T15:14:37;102182.03;;;4.86;100.00
20909;BME280;10614;53.198;6.570;2023-12-14T15:16:40;102182.88;;;4.82;100.00
20909;BME280;10614;53.198;6.570;2023-12-14T15:18:41;102161.06;;;4.66;100.00
20909;BME280;10614;53.198;6.570;2023-12-14T15:20:45;102188.09;;;4.80;100.00
20909;BME280;10614;53.198;6.570;2023-12-14T15:22:49;102180.25;;;4.82;100.00
20909;BME280;10614;53.198;6.570;2023-12-14T15:24:51;102183.75;;;4.81;100.00
20909;BME280;10614;53.198;6.570;2023-12-14T15:26:53;102159.28;;;4.63;100.00
20909;BME280;10614;53.198;6.570;2023-12-14T15:28:55;102144.50;;;4.58;100.00
20909;BME280;10614;53.198;6.570;2023-12-14T15:30:57;102171.50;;;4.66;100.00
20909;BME280;10614;53.198;6.570;2023-12-14T15:32:59;102183.69;;;4.69;100.00
20909;BME280;10614;53.198;6.570;2023-12-14T15:35:00;102170.59;;;4.65;100.00
20909;BME280;10614;53.198;6.570;2023-12-14T15:37:04;102181.09;;;4.73;100.00
20909;BME280;10614;53.198;6.570;2023-12-14T15:39:07;102196.75;;;4.75;100.00
20909;BME280;10614;53.198;6.570;2023-12-14T15:41:10;102161.00;;;4.57;100.00